Time,TemperatureF,DewpointF,PressureIn,WindDirection,WindDirectionDegrees,WindSpeedMPH,WindSpeedGustMPH,Humidity,HourlyPrecipIn,Conditions,Clouds,dailyrainin,SoftwareType,DateUTC
2013-08-01 00:05:00,77.7,74.0,29.99,West,278,0.0,0.0,89,0.00,,,0.00,weatherlink.com 1.10,2013-08-01 05:05:00,
2013-08-01 00:20:00,77.7,74.0,30.00,West,278,0.0,0.0,89,0.00,,,0.00,weatherlink.com 1.10,2013-08-01 05:20:00,
2013-08-01 00:35:00,77.8,74.0,29.99,West,278,0.0,0.0,89,0.00,,,0.00,weatherlink.com 1.10,2013-08-01 05:35:00,
2013-08-01 00:50:00,77.7,74.0,29.99,West,278,0.0,0.0,89,0.00,,,0.00,weatherlink.com 1.10,2013-08-01 05:50:00,
2013-08-01 01:05:00,77.7,75.0,29.98,West,278,0.0,0.0,90,0.00,,,0.00,weatherlink.com 1.10,2013-08-01 06:05:00,
2013-08-01 01:20:00,77.5,74.0,29.98,West,278,0.0,0.0,90,0.00,,,0.00,weatherlink.com 1.10,2013-08-01 06:20:00,
2013-08-01 01:35:00,77.6,75.0,29.98,West,278,0.0,1.0,90,0.00,,,0.00,weatherlink.com 1.10,2013-08-01 06:35:00,
2013-08-01 01:50:00,77.6,74.0,29.98,West,270,0.0,1.0,89,0.00,,,0.00,weatherlink.com 1.10,2013-08-01 06:50:00,
2013-08-01 02:05:00,77.5,74.0,29.97,WSW,242,0.0,1.0,89,0.00,,,0.00,weatherlink.com 1.10,2013-08-01 07:05:00,
2013-08-01 02:20:00,77.5,74.0,29.96,WSW,253,0.0,1.0,89,0.00,,,0.00,weatherlink.com 1.10,2013-08-01 07:20:00,
2013-08-01 02:35:00,77.5,74.0,29.95,South,183,0.0,2.0,89,0.00,,,0.00,weatherlink.com 1.10,2013-08-01 07:35:00,
2013-08-01 02:50:00,77.5,74.0,29.96,WSW,257,0.0,1.0,89,0.00,,,0.00,weatherlink.com 1.10,2013-08-01 07:50:00,
2013-08-01 03:05:00,77.3,74.0,29.96,WSW,238,0.0,4.0,89,0.00,,,0.00,weatherlink.com 1.10,2013-08-01 08:05:00,
2013-08-01 03:35:00,76.4,73.0,29.96,SW,236,1.0,4.0,90,0.00,,,0.00,weatherlink.com 1.10,2013-08-01 08:35:00,
2013-08-01 03:50:00,76.2,74.0,29.96,West,263,1.0,1.0,91,0.00,,,0.00,weatherlink.com 1.10,2013-08-01 08:50:00,
2013-08-01 04:05:00,76.1,73.0,29.97,WSW,239,0.0,1.0,91,0.00,,,0.00,weatherlink.com 1.10,2013-08-01 09:05:00,
2013-08-01 04:35:00,75.6,73.0,29.97,SSW,212,1.0,1.0,92,0.00,,,0.00,weatherlink.com 1.10,2013-08-01 09:35:00,
2013-08-01 04:50:00,75.5,73.0,29.97,WSW,242,0.0,1.0,92,0.00,,,0.00,weatherlink.com 1.10,2013-08-01 09:50:00,
2013-08-01 05:05:00,75.5,73.0,29.98,West,269,0.0,2.0,92,0.00,,,0.00,weatherlink.com 1.10,2013-08-01 10:05:00,
2013-08-01 05:35:00,75.4,73.0,29.98,WSW,249,0.0,3.0,92,0.00,,,0.00,weatherlink.com 1.10,2013-08-01 10:35:00,
2013-08-01 05:50:00,75.5,73.0,29.99,West,269,1.0,3.0,92,0.00,,,0.00,weatherlink.com 1.10,2013-08-01 10:50:00,
2013-08-01 06:05:00,75.9,74.0,29.99,SW,224,2.0,4.0,92,0.00,,,0.00,weatherlink.com 1.10,2013-08-01 11:05:00,
2013-08-01 06:20:00,76.1,73.0,30.00,West,271,0.0,2.0,91,0.00,,,0.00,weatherlink.com 1.10,2013-08-01 11:20:00,
2013-08-01 07:05:00,76.3,73.0,30.00,West,275,0.0,2.0,90,0.00,,,0.00,weatherlink.com 1.10,2013-08-01 12:05:00,
2013-08-01 07:35:00,76.7,74.0,30.01,West,267,1.0,4.0,90,0.00,,,0.00,weatherlink.com 1.10,2013-08-01 12:35:00,
2013-08-01 07:50:00,77.0,74.0,30.01,NNW,331,0.0,1.0,90,0.00,,,0.00,weatherlink.com 1.10,2013-08-01 12:50:00,
2013-08-01 08:05:00,77.1,74.0,30.02,NW,314,2.0,4.0,90,0.00,,,0.00,weatherlink.com 1.10,2013-08-01 13:05:00,
2013-08-01 08:21:00,77.3,75.0,30.03,WNW,293,2.0,3.0,91,0.04,,,0.04,weatherlink.com 1.10,2013-08-01 13:21:00,
2013-08-01 09:21:00,76.4,75.0,30.03,West,260,0.0,2.0,94,0.25,,,0.31,weatherlink.com 1.10,2013-08-01 14:21:00,
2013-08-01 09:36:00,77.1,75.0,30.03,West,281,1.0,3.0,94,0.08,,,0.31,weatherlink.com 1.10,2013-08-01 14:36:00,
2013-08-01 09:51:00,78.3,77.0,30.03,SSE,160,1.0,3.0,94,0.00,,,0.31,weatherlink.com 1.10,2013-08-01 14:51:00,
2013-08-01 10:21:00,80.5,78.0,30.03,WNW,283,0.0,3.0,91,0.00,,,0.31,weatherlink.com 1.10,2013-08-01 15:21:00,
2013-08-01 10:36:00,80.8,77.0,30.03,West,273,1.0,5.0,89,0.00,,,0.31,weatherlink.com 1.10,2013-08-01 15:36:00,
2013-08-01 12:06:00,87.8,78.0,30.01,SW,216,1.0,5.0,73,0.00,,,0.31,weatherlink.com 1.10,2013-08-01 17:06:00,
2013-08-01 12:21:00,88.2,77.0,30.01,SSW,198,1.0,4.0,70,0.00,,,0.31,weatherlink.com 1.10,2013-08-01 17:21:00,
2013-08-01 13:06:00,89.2,77.0,29.99,West,264,3.0,5.0,68,0.00,,,0.31,weatherlink.com 1.10,2013-08-01 18:06:00,
2013-08-01 13:21:00,90.3,77.0,29.98,West,272,0.0,7.0,66,0.00,,,0.31,weatherlink.com 1.10,2013-08-01 18:21:00,
2013-08-01 13:51:00,91.3,76.0,29.97,South,173,1.0,6.0,62,0.00,,,0.31,weatherlink.com 1.10,2013-08-01 18:51:00,
2013-08-01 15:07:00,93.0,77.0,29.95,SSW,203,1.0,6.0,59,0.00,,,0.31,weatherlink.com 1.10,2013-08-01 20:07:00,
2013-08-01 15:37:00,92.6,77.0,29.94,WNW,288,1.0,6.0,60,0.00,,,0.31,weatherlink.com 1.10,2013-08-01 20:37:00,
2013-08-01 15:52:00,93.0,77.0,29.93,West,275,4.0,5.0,59,0.00,,,0.31,weatherlink.com 1.10,2013-08-01 20:52:00,
2013-08-01 16:07:00,93.3,77.0,29.93,West,278,0.0,5.0,60,0.00,,,0.31,weatherlink.com 1.10,2013-08-01 21:07:00,
2013-08-01 16:37:00,93.9,76.0,29.92,WNW,284,1.0,5.0,57,0.00,,,0.31,weatherlink.com 1.10,2013-08-01 21:37:00,
2013-08-01 16:52:00,94.5,77.0,29.92,WSW,252,1.0,6.0,58,0.00,,,0.31,weatherlink.com 1.10,2013-08-01 21:52:00,
2013-08-01 17:07:00,94.2,77.0,29.91,NNW,339,0.0,5.0,58,0.00,,,0.31,weatherlink.com 1.10,2013-08-01 22:07:00,
2013-08-01 17:22:00,92.6,77.0,29.91,ENE,75,0.0,3.0,61,0.00,,,0.31,weatherlink.com 1.10,2013-08-01 22:22:00,
2013-08-01 17:37:00,89.1,78.0,29.91,ENE,65,0.0,3.0,70,0.00,,,0.31,weatherlink.com 1.10,2013-08-01 22:37:00,
2013-08-01 17:52:00,86.3,79.0,29.91,SE,139,0.0,1.0,79,0.00,,,0.31,weatherlink.com 1.10,2013-08-01 22:52:00,
2013-08-01 18:07:00,84.2,78.0,29.91,SSE,153,0.0,1.0,81,0.00,,,0.31,weatherlink.com 1.10,2013-08-01 23:07:00,
2013-08-01 18:22:00,83.7,78.0,29.91,SSE,152,0.0,1.0,82,0.00,,,0.31,weatherlink.com 1.10,2013-08-01 23:22:00,
2013-08-01 18:37:00,83.8,78.0,29.91,SSE,165,0.0,2.0,82,0.00,,,0.31,weatherlink.com 1.10,2013-08-01 23:37:00,
2013-08-01 19:07:00,83.0,79.0,29.92,South,173,0.0,1.0,86,0.00,,,0.31,weatherlink.com 1.10,2013-08-02 00:07:00,
2013-08-01 19:22:00,82.8,78.0,29.92,South,173,0.0,0.0,85,0.00,,,0.31,weatherlink.com 1.10,2013-08-02 00:22:00,
2013-08-01 19:37:00,82.6,78.0,29.93,South,173,0.0,0.0,85,0.00,,,0.31,weatherlink.com 1.10,2013-08-02 00:37:00,
2013-08-01 19:52:00,82.2,78.0,29.94,South,173,0.0,0.0,86,0.00,,,0.31,weatherlink.com 1.10,2013-08-02 00:52:00,
2013-08-01 20:07:00,81.5,78.0,29.95,SSE,163,1.0,2.0,88,0.00,,,0.31,weatherlink.com 1.10,2013-08-02 01:07:00,
2013-08-01 20:22:00,80.5,77.0,29.95,South,177,0.0,2.0,89,0.00,,,0.31,weatherlink.com 1.10,2013-08-02 01:22:00,
2013-08-01 20:37:00,80.0,77.0,29.96,South,177,0.0,0.0,89,0.00,,,0.31,weatherlink.com 1.10,2013-08-02 01:37:00,
2013-08-01 20:52:00,79.6,76.0,29.96,WSW,242,0.0,1.0,89,0.00,,,0.31,weatherlink.com 1.10,2013-08-02 01:52:00,
2013-08-01 21:07:00,79.2,75.0,29.97,SE,142,1.0,2.0,88,0.00,,,0.31,weatherlink.com 1.10,2013-08-02 02:07:00,
2013-08-01 21:22:00,78.8,75.0,29.98,SSE,159,1.0,3.0,88,0.00,,,0.31,weatherlink.com 1.10,2013-08-02 02:22:00,
2013-08-01 21:37:00,78.4,75.0,29.98,SSE,165,0.0,2.0,88,0.00,,,0.31,weatherlink.com 1.10,2013-08-02 02:37:00,
2013-08-01 21:52:00,77.9,74.0,29.97,SSE,165,0.0,0.0,88,0.00,,,0.31,weatherlink.com 1.10,2013-08-02 02:52:00,
2013-08-01 22:07:00,77.5,74.0,29.96,SW,232,0.0,0.0,89,0.00,,,0.31,weatherlink.com 1.10,2013-08-02 03:07:00,
2013-08-01 22:22:00,77.0,74.0,29.96,NW,306,0.0,1.0,90,0.00,,,0.31,weatherlink.com 1.10,2013-08-02 03:22:00,
2013-08-01 23:07:00,76.3,74.0,29.95,NNW,332,0.0,1.0,92,0.00,,,0.31,weatherlink.com 1.10,2013-08-02 04:07:00,
2013-08-01 23:22:00,76.0,74.0,29.96,NNW,332,0.0,0.0,92,0.00,,,0.31,weatherlink.com 1.10,2013-08-02 04:22:00,
2013-08-01 23:37:00,75.7,73.0,29.96,NNW,332,0.0,0.0,92,0.00,,,0.31,weatherlink.com 1.10,2013-08-02 04:37:00,
2013-08-01 23:52:00,75.6,74.0,29.96,NNW,331,0.0,0.0,93,0.00,,,0.31,weatherlink.com 1.10,2013-08-02 04:52:00,